sensor_id;sensor_type;location;lat;lon;timestamp;P1;durP1;ratioP1;P2;durP2;ratioP2
35745;SDS011;21870;42.812;74.628;2022-11-14T00:00:27;6.40;;;4.60;;
35745;SDS011;21870;42.812;74.628;2022-11-14T00:02:58;6.22;;;5.47;;
35745;SDS011;21870;42.812;74.628;2022-11-14T00:05:25;7.35;;;5.10;;
35745;SDS011;21870;42.812;74.628;2022-11-14T00:07:51;8.07;;;6.82;;
35745;SDS011;21870;42.812;74.628;2022-11-14T00:10:17;11.60;;;7.32;;
35745;SDS011;21870;42.812;74.628;2022-11-14T00:12:44;8.73;;;7.93;;
35745;SDS011;21870;42.812;74.628;2022-11-14T00:15:10;8.10;;;6.82;;
35745;SDS011;21870;42.812;74.628;2022-11-14T00:17:37;12.18;;;7.38;;
35745;SDS011;21870;42.812;74.628;2022-11-14T00:20:03;8.40;;;7.60;;
35745;SDS011;21870;42.812;74.628;2022-11-14T00:22:31;14.98;;;8.10;;
35745;SDS011;21870;42.812;74.628;2022-11-14T00:24:57;8.98;;;8.02;;
35745;SDS011;21870;42.812;74.628;2022-11-14T00:27:23;7.57;;;6.55;;
35745;SDS011;21870;42.812;74.628;2022-11-14T00:29:50;7.10;;;5.70;;
35745;SDS011;21870;42.812;74.628;2022-11-14T00:32:16;9.25;;;6.68;;
35745;SDS011;21870;42.812;74.628;2022-11-14T00:34:42;8.95;;;7.07;;
35745;SDS011;21870;42.812;74.628;2022-11-14T00:37:08;8.70;;;7.65;;
35745;SDS011;21870;42.812;74.628;2022-11-14T00:39:34;11.82;;;7.68;;
35745;SDS011;21870;42.812;74.628;2022-11-14T00:42:00;13.55;;;6.80;;
35745;SDS011;21870;42.812;74.628;2022-11-14T00:44:26;11.23;;;7.72;;
35745;SDS011;21870;42.812;74.628;2022-11-14T00:46:52;11.45;;;8.60;;
35745;SDS011;21870;42.812;74.628;2022-11-14T00:49:18;10.80;;;8.27;;
35745;SDS011;21870;42.812;74.628;2022-11-14T00:51:44;12.05;;;9.35;;
35745;SDS011;21870;42.812;74.628;2022-11-14T00:54:10;14.50;;;10.38;;
35745;SDS011;21870;42.812;74.628;2022-11-14T00:56:36;25.75;;;15.90;;
35745;SDS011;21870;42.812;74.628;2022-11-14T00:59:02;20.35;;;14.15;;
35745;SDS011;21870;42.812;74.628;2022-11-14T01:01:29;17.20;;;12.95;;
35745;SDS011;21870;42.812;74.628;2022-11-14T01:03:55;23.63;;;13.70;;
35745;SDS011;21870;42.812;74.628;2022-11-14T01:06:21;38.15;;;17.75;;
35745;SDS011;21870;42.812;74.628;2022-11-14T01:08:48;28.02;;;15.70;;
35745;SDS011;21870;42.812;74.628;2022-11-14T01:11:16;20.27;;;13.65;;
35745;SDS011;21870;42.812;74.628;2022-11-14T01:13:44;19.70;;;12.45;;
35745;SDS011;21870;42.812;74.628;2022-11-14T01:16:10;19.27;;;12.52;;
35745;SDS011;21870;42.812;74.628;2022-11-14T01:18:37;26.23;;;14.77;;
35745;SDS011;21870;42.812;74.628;2022-11-14T01:21:05;20.38;;;12.52;;
35745;SDS011;21870;42.812;74.628;2022-11-14T01:23:32;23.13;;;12.85;;
35745;SDS011;21870;42.812;74.628;2022-11-14T01:26:02;25.00;;;14.70;;
35745;SDS011;21870;42.812;74.628;2022-11-14T01:28:31;24.33;;;14.20;;
35745;SDS011;21870;42.812;74.628;2022-11-14T01:31:20;29.65;;;14.10;;
35745;SDS011;21870;42.812;74.628;2022-11-14T01:33:47;24.63;;;14.25;;
35745;SDS011;21870;42.812;74.628;2022-11-14T01:36:14;32.80;;;17.23;;
35745;SDS011;21870;42.812;74.628;2022-11-14T01:38:40;25.77;;;15.95;;
35745;SDS011;21870;42.812;74.628;2022-11-14T01:41:07;29.33;;;16.88;;
35745;SDS011;21870;42.812;74.628;2022-11-14T01:43:37;35.83;;;17.00;;
35745;SDS011;21870;42.812;74.628;2022-11-14T01:46:05;39.88;;;18.35;;
35745;SDS011;21870;42.812;74.628;2022-11-14T01:48:35;25.95;;;15.82;;
35745;SDS011;21870;42.812;74.628;2022-11-14T01:51:19;28.88;;;17.02;;
35745;SDS011;21870;42.812;74.628;2022-11-14T01:54:05;23.13;;;14.98;;
35745;SDS011;21870;42.812;74.628;2022-11-14T01:56:45;26.45;;;14.65;;
35745;SDS011;21870;42.812;74.628;2022-11-14T01:59:25;31.08;;;15.13;;
35745;SDS011;21870;42.812;74.628;2022-11-14T02:01:54;27.27;;;15.35;;
35745;SDS011;21870;42.812;74.628;2022-11-14T02:04:27;30.63;;;16.52;;
35745;SDS011;21870;42.812;74.628;2022-11-14T02:06:57;21.13;;;13.18;;
35745;SDS011;21870;42.812;74.628;2022-11-14T02:09:27;25.42;;;12.82;;
35745;SDS011;21870;42.812;74.628;2022-11-14T02:11:57;29.50;;;12.48;;
35745;SDS011;21870;42.812;74.628;2022-11-14T02:14:25;21.80;;;11.88;;
35745;SDS011;21870;42.812;74.628;2022-11-14T02:16:53;19.85;;;11.00;;
35745;SDS011;21870;42.812;74.628;2022-11-14T02:19:19;17.30;;;10.70;;
35745;SDS011;21870;42.812;74.628;2022-11-14T02:21:46;21.67;;;11.95;;
35745;SDS011;21870;42.812;74.628;2022-11-14T02:24:15;25.25;;;12.85;;
35745;SDS011;21870;42.812;74.628;2022-11-14T02:26:41;28.83;;;14.35;;
35745;SDS011;21870;42.812;74.628;2022-11-14T02:29:08;22.05;;;14.80;;
35745;SDS011;21870;42.812;74.628;2022-11-14T02:31:35;29.58;;;17.30;;
35745;SDS011;21870;42.812;74.628;2022-11-14T02:34:02;18.50;;;12.30;;
35745;SDS011;21870;42.812;74.628;2022-11-14T02:36:28;25.73;;;17.23;;
35745;SDS011;21870;42.812;74.628;2022-11-14T02:38:54;26.73;;;17.60;;
35745;SDS011;21870;42.812;74.628;2022-11-14T02:41:20;23.73;;;14.55;;
35745;SDS011;21870;42.812;74.628;2022-11-14T02:43:46;33.28;;;24.70;;
35745;SDS011;21870;42.812;74.628;2022-11-14T02:46:12;42.55;;;25.40;;
35745;SDS011;21870;42.812;74.628;2022-11-14T02:48:38;65.30;;;43.90;;
35745;SDS011;21870;42.812;74.628;2022-11-14T02:51:04;60.05;;;39.45;;
35745;SDS011;21870;42.812;74.628;2022-11-14T02:53:30;39.40;;;26.67;;
35745;SDS011;21870;42.812;74.628;2022-11-14T02:55:56;46.33;;;34.47;;
35745;SDS011;21870;42.812;74.628;2022-11-14T02:58:22;32.38;;;18.38;;
35745;SDS011;21870;42.812;74.628;2022-11-14T03:00:48;15.93;;;11.02;;
35745;SDS011;21870;42.812;74.628;2022-11-14T03:03:14;15.88;;;11.13;;
35745;SDS011;21870;42.812;74.628;2022-11-14T03:05:40;31.88;;;22.77;;
35745;SDS011;21870;42.812;74.628;2022-11-14T03:08:06;44.45;;;31.45;;
35745;SDS011;21870;42.812;74.628;2022-11-14T03:10:32;27.30;;;19.13;;
35745;SDS011;21870;42.812;74.628;2022-11-14T03:12:58;14.45;;;10.98;;
35745;SDS011;21870;42.812;74.628;2022-11-14T03:15:24;18.50;;;10.90;;
35745;SDS011;21870;42.812;74.628;2022-11-14T03:17:50;22.95;;;14.18;;
35745;SDS011;21870;42.812;74.628;2022-11-14T03:20:17;22.73;;;13.63;;
35745;SDS011;21870;42.812;74.628;2022-11-14T03:22:43;32.90;;;15.48;;
35745;SDS011;21870;42.812;74.628;2022-11-14T03:25:09;23.60;;;14.25;;
35745;SDS011;21870;42.812;74.628;2022-11-14T03:27:35;22.02;;;14.50;;
35745;SDS011;21870;42.812;74.628;2022-11-14T03:30:01;22.67;;;12.85;;
35745;SDS011;21870;42.812;74.628;2022-11-14T03:32:27;30.60;;;15.15;;
35745;SDS011;21870;42.812;74.628;2022-11-14T03:34:53;20.25;;;13.20;;
35745;SDS011;21870;42.812;74.628;2022-11-14T03:37:19;22.83;;;14.52;;
35745;SDS011;21870;42.812;74.628;2022-11-14T03:39:45;29.55;;;15.05;;
35745;SDS011;21870;42.812;74.628;2022-11-14T03:42:11;24.02;;;12.25;;
35745;SDS011;21870;42.812;74.628;2022-11-14T03:44:38;15.80;;;10.63;;
35745;SDS011;21870;42.812;74.628;2022-11-14T03:47:04;20.90;;;10.10;;
35745;SDS011;21870;42.812;74.628;2022-11-14T03:49:30;15.98;;;10.65;;
35745;SDS011;21870;42.812;74.628;2022-11-14T03:51:56;19.17;;;11.10;;
35745;SDS011;21870;42.812;74.628;2022-11-14T03:54:22;29.65;;;14.40;;
35745;SDS011;21870;42.812;74.628;2022-11-14T03:56:48;25.17;;;14.15;;
35745;SDS011;21870;42.812;74.628;2022-11-14T03:59:14;21.67;;;14.45;;
35745;SDS011;21870;42.812;74.628;2022-11-14T04:01:40;27.73;;;15.70;;
35745;SDS011;21870;42.812;74.628;2022-11-14T04:04:06;17.45;;;13.25;;
35745;SDS011;21870;42.812;74.628;2022-11-14T04:06:33;22.88;;;14.27;;
35745;SDS011;21870;42.812;74.628;2022-11-14T04:08:59;19.92;;;11.35;;
35745;SDS011;21870;42.812;74.628;2022-11-14T04:11:25;16.15;;;9.75;;
35745;SDS011;21870;42.812;74.628;2022-11-14T04:13:51;11.25;;;6.60;;
35745;SDS011;21870;42.812;74.628;2022-11-14T04:16:17;9.55;;;7.10;;
35745;SDS011;21870;42.812;74.628;2022-11-14T04:18:43;13.73;;;7.30;;
35745;SDS011;21870;42.812;74.628;2022-11-14T04:21:09;11.45;;;7.50;;
35745;SDS011;21870;42.812;74.628;2022-11-14T04:23:35;11.45;;;6.40;;
35745;SDS011;21870;42.812;74.628;2022-11-14T04:26:01;15.50;;;7.10;;
35745;SDS011;21870;42.812;74.628;2022-11-14T04:28:27;12.52;;;7.13;;
35745;SDS011;21870;42.812;74.628;2022-11-14T04:30:54;9.45;;;6.60;;
35745;SDS011;21870;42.812;74.628;2022-11-14T04:33:20;11.70;;;7.32;;
35745;SDS011;21870;42.812;74.628;2022-11-14T04:35:46;21.98;;;12.18;;
35745;SDS011;21870;42.812;74.628;2022-11-14T04:38:13;25.48;;;13.43;;
35745;SDS011;21870;42.812;74.628;2022-11-14T04:40:39;24.52;;;12.52;;
35745;SDS011;21870;42.812;74.628;2022-11-14T04:43:05;12.43;;;6.60;;
35745;SDS011;21870;42.812;74.628;2022-11-14T04:45:31;15.15;;;7.45;;
35745;SDS011;21870;42.812;74.628;2022-11-14T04:47:57;15.93;;;8.07;;
35745;SDS011;21870;42.812;74.628;2022-11-14T04:50:23;15.63;;;10.45;;
35745;SDS011;21870;42.812;74.628;2022-11-14T04:52:52;21.52;;;11.75;;
35745;SDS011;21870;42.812;74.628;2022-11-14T04:55:18;19.75;;;11.85;;
35745;SDS011;21870;42.812;74.628;2022-11-14T04:57:44;20.38;;;12.55;;
35745;SDS011;21870;42.812;74.628;2022-11-14T05:00:10;19.55;;;9.88;;
35745;SDS011;21870;42.812;74.628;2022-11-14T05:02:37;18.08;;;10.15;;
35745;SDS011;21870;42.812;74.628;2022-11-14T05:05:03;18.17;;;8.50;;
35745;SDS011;21870;42.812;74.628;2022-11-14T05:07:29;9.63;;;8.00;;
35745;SDS011;21870;42.812;74.628;2022-11-14T05:09:55;13.02;;;8.57;;
35745;SDS011;21870;42.812;74.628;2022-11-14T05:12:22;12.43;;;8.68;;
35745;SDS011;21870;42.812;74.628;2022-11-14T05:14:48;9.27;;;7.40;;
35745;SDS011;21870;42.812;74.628;2022-11-14T05:17:14;17.17;;;9.50;;
35745;SDS011;21870;42.812;74.628;2022-11-14T05:19:40;15.55;;;11.02;;
35745;SDS011;21870;42.812;74.628;2022-11-14T05:22:06;14.75;;;10.32;;
35745;SDS011;21870;42.812;74.628;2022-11-14T05:24:32;14.75;;;8.75;;
35745;SDS011;21870;42.812;74.628;2022-11-14T05:26:58;16.95;;;10.13;;
35745;SDS011;21870;42.812;74.628;2022-11-14T05:29:24;17.02;;;8.23;;
35745;SDS011;21870;42.812;74.628;2022-11-14T05:31:50;14.48;;;9.32;;
35745;SDS011;21870;42.812;74.628;2022-11-14T05:34:16;9.95;;;7.82;;
35745;SDS011;21870;42.812;74.628;2022-11-14T05:36:42;10.95;;;7.22;;
35745;SDS011;21870;42.812;74.628;2022-11-14T05:39:08;22.70;;;9.90;;
35745;SDS011;21870;42.812;74.628;2022-11-14T05:41:34;12.65;;;7.07;;
35745;SDS011;21870;42.812;74.628;2022-11-14T05:44:02;15.73;;;8.77;;
35745;SDS011;21870;42.812;74.628;2022-11-14T05:46:29;10.02;;;6.55;;
35745;SDS011;21870;42.812;74.628;2022-11-14T05:48:55;15.02;;;9.02;;
35745;SDS011;21870;42.812;74.628;2022-11-14T05:51:21;21.15;;;9.27;;
35745;SDS011;21870;42.812;74.628;2022-11-14T05:53:47;24.00;;;7.72;;
35745;SDS011;21870;42.812;74.628;2022-11-14T05:56:13;13.63;;;7.32;;
35745;SDS011;21870;42.812;74.628;2022-11-14T05:58:39;15.93;;;7.68;;
35745;SDS011;21870;42.812;74.628;2022-11-14T06:01:12;11.10;;;7.30;;
35745;SDS011;21870;42.812;74.628;2022-11-14T06:03:44;14.48;;;8.35;;
35745;SDS011;21870;42.812;74.628;2022-11-14T06:06:13;10.27;;;6.95;;
35745;SDS011;21870;42.812;74.628;2022-11-14T06:08:41;9.52;;;6.95;;
35745;SDS011;21870;42.812;74.628;2022-11-14T06:11:09;14.57;;;8.68;;
35745;SDS011;21870;42.812;74.628;2022-11-14T06:13:37;19.85;;;6.57;;
35745;SDS011;21870;42.812;74.628;2022-11-14T06:16:04;10.50;;;6.75;;
35745;SDS011;21870;42.812;74.628;2022-11-14T06:18:32;14.02;;;6.97;;
35745;SDS011;21870;42.812;74.628;2022-11-14T06:20:59;16.08;;;6.93;;
35745;SDS011;21870;42.812;74.628;2022-11-14T06:23:26;9.48;;;7.15;;
35745;SDS011;21870;42.812;74.628;2022-11-14T06:26:03;14.27;;;6.55;;
35745;SDS011;21870;42.812;74.628;2022-11-14T06:28:31;13.85;;;7.03;;
35745;SDS011;21870;42.812;74.628;2022-11-14T06:30:58;14.90;;;8.00;;
35745;SDS011;21870;42.812;74.628;2022-11-14T06:33:28;18.80;;;8.60;;
35745;SDS011;21870;42.812;74.628;2022-11-14T06:35:59;14.13;;;7.68;;
35745;SDS011;21870;42.812;74.628;2022-11-14T06:38:27;10.57;;;6.97;;
35745;SDS011;21870;42.812;74.628;2022-11-14T06:41:09;17.48;;;7.55;;
35745;SDS011;21870;42.812;74.628;2022-11-14T06:43:41;9.25;;;6.45;;
35745;SDS011;21870;42.812;74.628;2022-11-14T06:46:12;18.42;;;7.28;;
35745;SDS011;21870;42.812;74.628;2022-11-14T06:48:40;14.75;;;7.50;;
35745;SDS011;21870;42.812;74.628;2022-11-14T06:51:08;14.70;;;8.02;;
35745;SDS011;21870;42.812;74.628;2022-11-14T06:53:35;13.05;;;7.65;;
35745;SDS011;21870;42.812;74.628;2022-11-14T06:56:03;19.20;;;9.07;;
35745;SDS011;21870;42.812;74.628;2022-11-14T06:58:38;11.15;;;7.32;;
35745;SDS011;21870;42.812;74.628;2022-11-14T07:01:27;12.73;;;8.32;;
35745;SDS011;21870;42.812;74.628;2022-11-14T07:03:53;13.70;;;7.25;;
35745;SDS011;21870;42.812;74.628;2022-11-14T07:06:22;12.93;;;7.30;;
35745;SDS011;21870;42.812;74.628;2022-11-14T07:08:50;12.40;;;6.97;;
35745;SDS011;21870;42.812;74.628;2022-11-14T07:11:18;13.13;;;8.48;;
35745;SDS011;21870;42.812;74.628;2022-11-14T07:13:53;9.88;;;7.88;;
35745;SDS011;21870;42.812;74.628;2022-11-14T07:16:31;18.10;;;9.68;;
35745;SDS011;21870;42.812;74.628;2022-11-14T07:19:03;20.90;;;10.45;;
35745;SDS011;21870;42.812;74.628;2022-11-14T07:21:30;13.40;;;9.27;;
35745;SDS011;21870;42.812;74.628;2022-11-14T07:23:57;8.93;;;7.93;;
35745;SDS011;21870;42.812;74.628;2022-11-14T07:26:23;15.25;;;9.82;;
35745;SDS011;21870;42.812;74.628;2022-11-14T07:28:50;15.43;;;10.00;;
35745;SDS011;21870;42.812;74.628;2022-11-14T07:31:16;16.20;;;10.90;;
35745;SDS011;21870;42.812;74.628;2022-11-14T07:33:45;19.05;;;11.82;;
35745;SDS011;21870;42.812;74.628;2022-11-14T07:36:12;18.58;;;10.43;;
35745;SDS011;21870;42.812;74.628;2022-11-14T07:38:39;13.35;;;8.80;;
35745;SDS011;21870;42.812;74.628;2022-11-14T07:41:07;14.43;;;8.93;;
35745;SDS011;21870;42.812;74.628;2022-11-14T07:43:39;13.95;;;8.25;;
35745;SDS011;21870;42.812;74.628;2022-11-14T07:46:06;10.70;;;8.05;;
35745;SDS011;21870;42.812;74.628;2022-11-14T07:48:35;10.68;;;7.80;;
35745;SDS011;21870;42.812;74.628;2022-11-14T07:51:03;12.02;;;8.25;;
35745;SDS011;21870;42.812;74.628;2022-11-14T07:53:30;17.90;;;9.73;;
35745;SDS011;21870;42.812;74.628;2022-11-14T07:56:02;16.98;;;12.20;;
35745;SDS011;21870;42.812;74.628;2022-11-14T07:58:30;15.95;;;9.25;;
35745;SDS011;21870;42.812;74.628;2022-11-14T08:00:59;17.42;;;15.02;;
35745;SDS011;21870;42.812;74.628;2022-11-14T08:03:26;17.60;;;9.73;;
35745;SDS011;21870;42.812;74.628;2022-11-14T08:06:03;15.23;;;10.30;;
35745;SDS011;21870;42.812;74.628;2022-11-14T08:08:34;13.23;;;9.55;;
35745;SDS011;21870;42.812;74.628;2022-11-14T08:11:01;17.38;;;9.23;;
35745;SDS011;21870;42.812;74.628;2022-11-14T08:13:28;12.68;;;8.93;;
35745;SDS011;21870;42.812;74.628;2022-11-14T08:15:58;19.67;;;8.88;;
35745;SDS011;21870;42.812;74.628;2022-11-14T08:18:27;22.70;;;10.00;;
35745;SDS011;21870;42.812;74.628;2022-11-14T08:20:53;51.97;;;14.70;;
35745;SDS011;21870;42.812;74.628;2022-11-14T08:23:21;29.13;;;9.93;;
35745;SDS011;21870;42.812;74.628;2022-11-14T08:25:48;16.40;;;9.98;;
35745;SDS011;21870;42.812;74.628;2022-11-14T08:28:14;23.45;;;11.35;;
35745;SDS011;21870;42.812;74.628;2022-11-14T08:30:40;28.73;;;12.88;;
35745;SDS011;21870;42.812;74.628;2022-11-14T08:33:06;31.73;;;16.85;;
35745;SDS011;21870;42.812;74.628;2022-11-14T08:35:32;33.13;;;16.02;;
35745;SDS011;21870;42.812;74.628;2022-11-14T08:38:02;44.67;;;17.65;;
35745;SDS011;21870;42.812;74.628;2022-11-14T08:40:28;50.05;;;20.83;;
35745;SDS011;21870;42.812;74.628;2022-11-14T08:43:00;52.50;;;24.75;;
35745;SDS011;21870;42.812;74.628;2022-11-14T08:45:27;44.60;;;26.60;;
35745;SDS011;21870;42.812;74.628;2022-11-14T08:47:54;48.20;;;27.17;;
35745;SDS011;21870;42.812;74.628;2022-11-14T08:50:20;50.05;;;25.55;;
35745;SDS011;21870;42.812;74.628;2022-11-14T08:52:49;46.88;;;23.83;;
35745;SDS011;21870;42.812;74.628;2022-11-14T08:55:19;58.70;;;23.88;;
35745;SDS011;21870;42.812;74.628;2022-11-14T08:57:45;56.65;;;25.73;;
35745;SDS011;21870;42.812;74.628;2022-11-14T09:00:11;29.10;;;21.45;;
35745;SDS011;21870;42.812;74.628;2022-11-14T09:02:38;46.22;;;20.25;;
35745;SDS011;21870;42.812;74.628;2022-11-14T09:05:04;35.03;;;19.35;;
35745;SDS011;21870;42.812;74.628;2022-11-14T09:07:31;29.40;;;19.25;;
35745;SDS011;21870;42.812;74.628;2022-11-14T09:09:57;62.65;;;20.23;;
35745;SDS011;21870;42.812;74.628;2022-11-14T09:12:23;39.70;;;19.80;;
35745;SDS011;21870;42.812;74.628;2022-11-14T09:14:49;31.90;;;19.95;;
35745;SDS011;21870;42.812;74.628;2022-11-14T09:17:15;29.63;;;20.17;;
35745;SDS011;21870;42.812;74.628;2022-11-14T09:19:41;58.90;;;21.33;;
35745;SDS011;21870;42.812;74.628;2022-11-14T09:22:07;73.25;;;22.55;;
35745;SDS011;21870;42.812;74.628;2022-11-14T09:24:33;30.27;;;19.13;;
35745;SDS011;21870;42.812;74.628;2022-11-14T09:26:59;29.42;;;19.30;;
35745;SDS011;21870;42.812;74.628;2022-11-14T09:29:25;33.63;;;18.65;;
35745;SDS011;21870;42.812;74.628;2022-11-14T09:31:51;36.88;;;20.80;;
35745;SDS011;21870;42.812;74.628;2022-11-14T09:34:19;27.25;;;18.90;;
35745;SDS011;21870;42.812;74.628;2022-11-14T09:36:45;36.35;;;20.27;;
35745;SDS011;21870;42.812;74.628;2022-11-14T09:39:11;37.30;;;19.63;;
35745;SDS011;21870;42.812;74.628;2022-11-14T09:41:57;46.97;;;22.05;;
35745;SDS011;21870;42.812;74.628;2022-11-14T09:45:25;31.83;;;19.20;;
35745;SDS011;21870;42.812;74.628;2022-11-14T09:47:32;35.63;;;18.45;;
35745;SDS011;21870;42.812;74.628;2022-11-14T09:50:13;44.03;;;20.13;;
35745;SDS011;21870;42.812;74.628;2022-11-14T09:53:05;41.47;;;20.58;;
35745;SDS011;21870;42.812;74.628;2022-11-14T09:55:38;32.47;;;18.98;;
35745;SDS011;21870;42.812;74.628;2022-11-14T09:58:04;36.60;;;18.38;;
35745;SDS011;21870;42.812;74.628;2022-11-14T10:01:02;38.78;;;19.17;;
35745;SDS011;21870;42.812;74.628;2022-11-14T10:03:52;34.22;;;19.55;;
35745;SDS011;21870;42.812;74.628;2022-11-14T10:06:34;29.55;;;18.10;;
35745;SDS011;21870;42.812;74.628;2022-11-14T10:21:00;30.95;;;16.63;;
35745;SDS011;21870;42.812;74.628;2022-11-14T10:27:01;30.77;;;18.88;;
35745;SDS011;21870;42.812;74.628;2022-11-14T10:37:32;31.65;;;21.60;;
35745;SDS011;21870;42.812;74.628;2022-11-14T10:43:10;32.53;;;22.55;;
35745;SDS011;21870;42.812;74.628;2022-11-14T10:45:56;54.20;;;23.08;;
35745;SDS011;21870;42.812;74.628;2022-11-14T10:48:35;49.45;;;26.23;;
35745;SDS011;21870;42.812;74.628;2022-11-14T10:51:52;35.58;;;22.83;;
35745;SDS011;21870;42.812;74.628;2022-11-14T10:53:57;45.10;;;25.23;;
35745;SDS011;21870;42.812;74.628;2022-11-14T10:56:28;40.28;;;26.58;;
35745;SDS011;21870;42.812;74.628;2022-11-14T10:58:54;41.28;;;26.33;;
35745;SDS011;21870;42.812;74.628;2022-11-14T11:06:55;36.78;;;25.25;;
35745;SDS011;21870;42.812;74.628;2022-11-14T11:10:18;43.40;;;25.73;;
35745;SDS011;21870;42.812;74.628;2022-11-14T11:13:04;42.42;;;28.20;;
35745;SDS011;21870;42.812;74.628;2022-11-14T11:15:31;42.65;;;26.92;;
35745;SDS011;21870;42.812;74.628;2022-11-14T11:18:20;48.22;;;26.83;;
35745;SDS011;21870;42.812;74.628;2022-11-14T11:21:00;43.17;;;25.23;;
35745;SDS011;21870;42.812;74.628;2022-11-14T11:23:28;47.85;;;26.20;;
35745;SDS011;21870;42.812;74.628;2022-11-14T11:25:58;52.33;;;26.42;;
35745;SDS011;21870;42.812;74.628;2022-11-14T11:28:30;53.63;;;27.48;;
35745;SDS011;21870;42.812;74.628;2022-11-14T11:30:59;64.22;;;29.50;;
35745;SDS011;21870;42.812;74.628;2022-11-14T11:33:30;57.72;;;28.17;;
35745;SDS011;21870;42.812;74.628;2022-11-14T11:38:30;45.63;;;30.27;;
35745;SDS011;21870;42.812;74.628;2022-11-14T11:41:20;45.72;;;29.38;;
35745;SDS011;21870;42.812;74.628;2022-11-14T11:43:54;68.65;;;32.15;;
35745;SDS011;21870;42.812;74.628;2022-11-14T11:51:54;66.57;;;33.97;;
35745;SDS011;21870;42.812;74.628;2022-11-14T11:54:28;51.00;;;32.95;;
35745;SDS011;21870;42.812;74.628;2022-11-14T11:57:01;55.83;;;34.65;;
35745;SDS011;21870;42.812;74.628;2022-11-14T11:59:35;46.40;;;33.00;;
35745;SDS011;21870;42.812;74.628;2022-11-14T12:02:20;41.78;;;30.77;;
35745;SDS011;21870;42.812;74.628;2022-11-14T12:04:49;47.13;;;30.73;;
35745;SDS011;21870;42.812;74.628;2022-11-14T12:07:18;41.08;;;28.05;;
35745;SDS011;21870;42.812;74.628;2022-11-14T12:10:25;36.33;;;24.77;;
35745;SDS011;21870;42.812;74.628;2022-11-14T12:24:06;49.40;;;29.92;;
35745;SDS011;21870;42.812;74.628;2022-11-14T12:32:48;27.00;;;19.70;;
35745;SDS011;21870;42.812;74.628;2022-11-14T12:37:51;30.63;;;21.55;;
35745;SDS011;21870;42.812;74.628;2022-11-14T12:40:32;25.02;;;19.25;;
35745;SDS011;21870;42.812;74.628;2022-11-14T12:43:01;21.23;;;16.48;;
35745;SDS011;21870;42.812;74.628;2022-11-14T12:50:50;18.98;;;13.63;;
35745;SDS011;21870;42.812;74.628;2022-11-14T13:09:38;15.63;;;11.73;;
35745;SDS011;21870;42.812;74.628;2022-11-14T13:12:24;14.88;;;12.13;;
35745;SDS011;21870;42.812;74.628;2022-11-14T13:15:19;20.38;;;11.32;;
35745;SDS011;21870;42.812;74.628;2022-11-14T13:21:22;16.30;;;10.93;;
35745;SDS011;21870;42.812;74.628;2022-11-14T13:24:08;13.43;;;10.98;;
35745;SDS011;21870;42.812;74.628;2022-11-14T13:26:39;13.82;;;10.88;;
35745;SDS011;21870;42.812;74.628;2022-11-14T13:29:07;16.17;;;11.60;;
35745;SDS011;21870;42.812;74.628;2022-11-14T13:31:53;14.88;;;12.13;;
35745;SDS011;21870;42.812;74.628;2022-11-14T13:34:38;23.10;;;14.48;;
35745;SDS011;21870;42.812;74.628;2022-11-14T13:39:58;18.52;;;13.00;;
35745;SDS011;21870;42.812;74.628;2022-11-14T13:45:22;17.85;;;12.27;;
35745;SDS011;21870;42.812;74.628;2022-11-14T13:48:08;20.58;;;13.48;;
35745;SDS011;21870;42.812;74.628;2022-11-14T13:51:08;17.17;;;12.45;;
35745;SDS011;21870;42.812;74.628;2022-11-14T13:53:37;18.15;;;12.98;;
35745;SDS011;21870;42.812;74.628;2022-11-14T13:56:25;15.77;;;11.95;;
35745;SDS011;21870;42.812;74.628;2022-11-14T14:04:37;17.08;;;14.15;;
35745;SDS011;21870;42.812;74.628;2022-11-14T14:10:24;16.27;;;11.07;;
35745;SDS011;21870;42.812;74.628;2022-11-14T14:18:59;21.15;;;12.93;;
35745;SDS011;21870;42.812;74.628;2022-11-14T14:30:28;14.45;;;10.18;;
35745;SDS011;21870;42.812;74.628;2022-11-14T14:35:33;15.77;;;10.15;;
35745;SDS011;21870;42.812;74.628;2022-11-14T14:38:00;13.45;;;10.20;;
35745;SDS011;21870;42.812;74.628;2022-11-14T14:40:29;11.90;;;9.45;;
35745;SDS011;21870;42.812;74.628;2022-11-14T14:43:01;13.43;;;10.13;;
35745;SDS011;21870;42.812;74.628;2022-11-14T14:45:30;21.80;;;11.95;;
35745;SDS011;21870;42.812;74.628;2022-11-14T14:48:21;17.85;;;13.98;;
35745;SDS011;21870;42.812;74.628;2022-11-14T14:50:53;19.23;;;14.75;;
35745;SDS011;21870;42.812;74.628;2022-11-14T14:53:33;23.60;;;14.82;;
35745;SDS011;21870;42.812;74.628;2022-11-14T14:56:04;21.00;;;12.77;;
35745;SDS011;21870;42.812;74.628;2022-11-14T14:58:42;22.95;;;13.60;;
35745;SDS011;21870;42.812;74.628;2022-11-14T15:01:12;24.10;;;14.55;;
35745;SDS011;21870;42.812;74.628;2022-11-14T15:03:54;21.65;;;16.10;;
35745;SDS011;21870;42.812;74.628;2022-11-14T15:06:27;26.67;;;15.45;;
35745;SDS011;21870;42.812;74.628;2022-11-14T15:09:08;27.55;;;18.92;;
35745;SDS011;21870;42.812;74.628;2022-11-14T15:11:47;36.97;;;24.50;;
35745;SDS011;21870;42.812;74.628;2022-11-14T15:14:22;51.15;;;33.60;;
35745;SDS011;21870;42.812;74.628;2022-11-14T15:16:51;56.30;;;38.25;;
35745;SDS011;21870;42.812;74.628;2022-11-14T15:19:21;45.78;;;32.47;;
35745;SDS011;21870;42.812;74.628;2022-11-14T15:22:17;45.05;;;29.95;;
35745;SDS011;21870;42.812;74.628;2022-11-14T15:27:53;35.65;;;26.17;;
35745;SDS011;21870;42.812;74.628;2022-11-14T15:33:58;42.85;;;28.98;;
35745;SDS011;21870;42.812;74.628;2022-11-14T15:36:08;37.47;;;27.40;;
35745;SDS011;21870;42.812;74.628;2022-11-14T15:38:36;36.60;;;26.67;;
35745;SDS011;21870;42.812;74.628;2022-11-14T15:41:10;38.33;;;29.35;;
35745;SDS011;21870;42.812;74.628;2022-11-14T15:43:51;44.53;;;29.05;;
35745;SDS011;21870;42.812;74.628;2022-11-14T15:49:16;31.27;;;24.80;;
35745;SDS011;21870;42.812;74.628;2022-11-14T15:51:57;27.90;;;20.98;;
35745;SDS011;21870;42.812;74.628;2022-11-14T15:54:29;23.58;;;17.85;;
35745;SDS011;21870;42.812;74.628;2022-11-14T15:56:58;30.88;;;21.98;;
35745;SDS011;21870;42.812;74.628;2022-11-14T15:59:25;34.67;;;26.17;;
35745;SDS011;21870;42.812;74.628;2022-11-14T16:01:58;51.47;;;29.65;;
35745;SDS011;21870;42.812;74.628;2022-11-14T16:04:34;58.13;;;27.80;;
35745;SDS011;21870;42.812;74.628;2022-11-14T16:07:01;38.95;;;25.15;;
35745;SDS011;21870;42.812;74.628;2022-11-14T16:09:27;31.52;;;20.23;;
35745;SDS011;21870;42.812;74.628;2022-11-14T16:11:53;23.42;;;17.20;;
35745;SDS011;21870;42.812;74.628;2022-11-14T16:14:19;33.38;;;20.17;;
35745;SDS011;21870;42.812;74.628;2022-11-14T16:16:45;44.65;;;25.60;;
35745;SDS011;21870;42.812;74.628;2022-11-14T16:19:12;39.55;;;25.88;;
35745;SDS011;21870;42.812;74.628;2022-11-14T16:21:40;45.20;;;27.30;;
35745;SDS011;21870;42.812;74.628;2022-11-14T16:24:14;36.20;;;24.45;;
35745;SDS011;21870;42.812;74.628;2022-11-14T16:26:45;33.88;;;24.10;;
35745;SDS011;21870;42.812;74.628;2022-11-14T16:29:11;32.17;;;22.25;;
35745;SDS011;21870;42.812;74.628;2022-11-14T16:31:38;33.65;;;21.73;;
35745;SDS011;21870;42.812;74.628;2022-11-14T16:34:04;38.90;;;28.27;;
35745;SDS011;21870;42.812;74.628;2022-11-14T16:36:30;38.00;;;27.73;;